Kingsbury, Nevada
Current Conditions -  °F | °C
As of 8:53 PM on Saturday 25 Oct 2014 (Local Time) from KTVL Reporting Station
Clear Clear  
Wind Chill: 33°   Ceiling: Unl
Heat Index: 40°   Visibility: 10mi
Dew Point: 30°   Wind: 10mph
Humidity: 68%   Direction: 150°SSE
Pressure: 30.12"   Gusts: NA
Location:  39.0164°N, 119.925°W
Report Text: KTVL 260353Z AUTO 15009KT 10SM CLR 04/M01 A3012 RMK AO2 SLP173 T00441011
Loading
Personal Weather Stations






























Interactive Weather Map New forecast layout! Learn more

10-Day Weather Forecast

Advertisements
Track Severe Weather on mobile